sensor_id;sensor_type;location;lat;lon;timestamp;temperature;humidity
12588;DHT22;6359;51.450;7.346;2022-12-29T00:00:03;9.70;99.90
12588;DHT22;6359;51.450;7.346;2022-12-29T00:04:59;9.90;99.90
12588;DHT22;6359;51.450;7.346;2022-12-29T00:07:26;10.10;99.90
12588;DHT22;6359;51.450;7.346;2022-12-29T00:12:20;10.30;99.90
12588;DHT22;6359;51.450;7.346;2022-12-29T00:14:47;10.20;99.90
12588;DHT22;6359;51.450;7.346;2022-12-29T00:19:59;10.30;99.90
12588;DHT22;6359;51.450;7.346;2022-12-29T00:30:59;10.00;99.90
12588;DHT22;6359;51.450;7.346;2022-12-29T00:36:32;10.40;99.90
12588;DHT22;6359;51.450;7.346;2022-12-29T00:39:02;9.90;99.90
12588;DHT22;6359;51.450;7.346;2022-12-29T00:41:47;11.80;99.90
12588;DHT22;6359;51.450;7.346;2022-12-29T00:49:28;10.20;99.90
12588;DHT22;6359;51.450;7.346;2022-12-29T00:51:59;9.90;99.90
12588;DHT22;6359;51.450;7.346;2022-12-29T00:54:27;10.10;99.90
12588;DHT22;6359;51.450;7.346;2022-12-29T00:59:21;10.10;99.90
12588;DHT22;6359;51.450;7.346;2022-12-29T01:01:50;10.00;99.90
12588;DHT22;6359;51.450;7.346;2022-12-29T01:09:13;9.90;99.90
12588;DHT22;6359;51.450;7.346;2022-12-29T01:21:47;9.90;99.90
12588;DHT22;6359;51.450;7.346;2022-12-29T01:24:17;9.90;99.90
12588;DHT22;6359;51.450;7.346;2022-12-29T01:34:06;10.10;99.90
12588;DHT22;6359;51.450;7.346;2022-12-29T01:36:33;10.10;99.90
12588;DHT22;6359;51.450;7.346;2022-12-29T01:41:29;10.20;99.90
12588;DHT22;6359;51.450;7.346;2022-12-29T01:43:59;10.30;99.90
12588;DHT22;6359;51.450;7.346;2022-12-29T01:46:30;10.40;99.90
12588;DHT22;6359;51.450;7.346;2022-12-29T01:49:02;10.40;99.90
12588;DHT22;6359;51.450;7.346;2022-12-29T01:51:31;10.30;99.90
12588;DHT22;6359;51.450;7.346;2022-12-29T01:54:02;10.40;99.90
12588;DHT22;6359;51.450;7.346;2022-12-29T01:56:33;10.40;99.90
12588;DHT22;6359;51.450;7.346;2022-12-29T01:59:02;10.70;99.90
12588;DHT22;6359;51.450;7.346;2022-12-29T02:03:59;10.50;99.90
12588;DHT22;6359;51.450;7.346;2022-12-29T02:06:29;10.80;99.90
12588;DHT22;6359;51.450;7.346;2022-12-29T02:08:58;10.50;99.90
12588;DHT22;6359;51.450;7.346;2022-12-29T02:11:26;10.70;99.90
12588;DHT22;6359;51.450;7.346;2022-12-29T02:13:55;10.60;99.90
12588;DHT22;6359;51.450;7.346;2022-12-29T02:16:40;10.70;99.90
12588;DHT22;6359;51.450;7.346;2022-12-29T02:19:47;10.70;99.90
12588;DHT22;6359;51.450;7.346;2022-12-29T02:22:24;10.70;99.90
12588;DHT22;6359;51.450;7.346;2022-12-29T02:25:26;10.80;99.90
12588;DHT22;6359;51.450;7.346;2022-12-29T02:28:02;10.60;99.90
12588;DHT22;6359;51.450;7.346;2022-12-29T02:30:44;10.70;99.90
12588;DHT22;6359;51.450;7.346;2022-12-29T02:33:25;10.70;99.90
12588;DHT22;6359;51.450;7.346;2022-12-29T02:36:03;10.90;99.90
12588;DHT22;6359;51.450;7.346;2022-12-29T02:38:48;11.00;99.90
12588;DHT22;6359;51.450;7.346;2022-12-29T02:41:21;10.80;99.90
12588;DHT22;6359;51.450;7.346;2022-12-29T02:43:53;10.80;99.90
12588;DHT22;6359;51.450;7.346;2022-12-29T02:46:27;10.80;99.90
12588;DHT22;6359;51.450;7.346;2022-12-29T02:49:01;11.10;99.90
12588;DHT22;6359;51.450;7.346;2022-12-29T02:51:34;10.80;99.90
12588;DHT22;6359;51.450;7.346;2022-12-29T02:54:02;11.00;99.90
12588;DHT22;6359;51.450;7.346;2022-12-29T03:02:05;11.10;99.90
12588;DHT22;6359;51.450;7.346;2022-12-29T03:04:55;11.00;99.90
12588;DHT22;6359;51.450;7.346;2022-12-29T03:07:32;11.10;99.90
12588;DHT22;6359;51.450;7.346;2022-12-29T03:10:18;11.10;99.90
12588;DHT22;6359;51.450;7.346;2022-12-29T03:12:51;11.20;99.90
12588;DHT22;6359;51.450;7.346;2022-12-29T03:15:41;11.00;99.90
12588;DHT22;6359;51.450;7.346;2022-12-29T03:18:39;11.20;99.90
12588;DHT22;6359;51.450;7.346;2022-12-29T03:21:12;10.80;99.90
12588;DHT22;6359;51.450;7.346;2022-12-29T03:23:42;10.70;99.90
12588;DHT22;6359;51.450;7.346;2022-12-29T03:26:14;10.90;99.90
12588;DHT22;6359;51.450;7.346;2022-12-29T03:28:46;10.90;99.90
12588;DHT22;6359;51.450;7.346;2022-12-29T03:31:15;11.00;99.90
12588;DHT22;6359;51.450;7.346;2022-12-29T03:33:45;11.30;99.90
12588;DHT22;6359;51.450;7.346;2022-12-29T03:36:18;10.90;99.90
12588;DHT22;6359;51.450;7.346;2022-12-29T03:38:49;10.90;99.90
12588;DHT22;6359;51.450;7.346;2022-12-29T03:41:20;10.90;99.90
12588;DHT22;6359;51.450;7.346;2022-12-29T03:46:17;10.90;99.90
12588;DHT22;6359;51.450;7.346;2022-12-29T03:48:45;10.90;99.90
12588;DHT22;6359;51.450;7.346;2022-12-29T03:58:34;10.30;99.90
12588;DHT22;6359;51.450;7.346;2022-12-29T04:05:57;10.30;99.90
12588;DHT22;6359;51.450;7.346;2022-12-29T04:23:26;10.30;99.90
12588;DHT22;6359;51.450;7.346;2022-12-29T04:25:53;10.30;99.90
12588;DHT22;6359;51.450;7.346;2022-12-29T04:35:42;10.50;99.90
12588;DHT22;6359;51.450;7.346;2022-12-29T04:38:09;10.70;99.90
12588;DHT22;6359;51.450;7.346;2022-12-29T04:40:39;10.30;99.90
12588;DHT22;6359;51.450;7.346;2022-12-29T04:57:50;11.10;99.90
12588;DHT22;6359;51.450;7.346;2022-12-29T05:00:18;11.20;99.90
12588;DHT22;6359;51.450;7.346;2022-12-29T05:05:12;11.70;99.90
12588;DHT22;6359;51.450;7.346;2022-12-29T05:07:39;10.40;99.90
12588;DHT22;6359;51.450;7.346;2022-12-29T05:10:07;11.50;99.90
12588;DHT22;6359;51.450;7.346;2022-12-29T05:12:35;11.50;99.90
12588;DHT22;6359;51.450;7.346;2022-12-29T05:15:06;11.60;99.90
12588;DHT22;6359;51.450;7.346;2022-12-29T05:27:22;12.00;99.90
12588;DHT22;6359;51.450;7.346;2022-12-29T05:29:49;11.90;99.90
12588;DHT22;6359;51.450;7.346;2022-12-29T05:32:17;11.70;99.90
12588;DHT22;6359;51.450;7.346;2022-12-29T05:34:44;11.70;99.90
12588;DHT22;6359;51.450;7.346;2022-12-29T05:42:05;11.50;99.90
12588;DHT22;6359;51.450;7.346;2022-12-29T05:44:32;11.60;99.90
12588;DHT22;6359;51.450;7.346;2022-12-29T05:49:27;11.80;99.90
12588;DHT22;6359;51.450;7.346;2022-12-29T05:56:48;12.00;99.90
12588;DHT22;6359;51.450;7.346;2022-12-29T06:06:38;11.60;99.90
12588;DHT22;6359;51.450;7.346;2022-12-29T06:23:50;11.60;99.90
12588;DHT22;6359;51.450;7.346;2022-12-29T06:31:11;13.30;99.90
12588;DHT22;6359;51.450;7.346;2022-12-29T06:33:38;11.40;99.90
12588;DHT22;6359;51.450;7.346;2022-12-29T06:36:06;11.60;99.90
12588;DHT22;6359;51.450;7.346;2022-12-29T06:41:02;11.60;99.90
12588;DHT22;6359;51.450;7.346;2022-12-29T06:53:19;11.80;99.90
12588;DHT22;6359;51.450;7.346;2022-12-29T06:55:46;11.50;99.90
12588;DHT22;6359;51.450;7.346;2022-12-29T06:58:14;11.50;99.90
12588;DHT22;6359;51.450;7.346;2022-12-29T07:15:25;11.40;99.90
12588;DHT22;6359;51.450;7.346;2022-12-29T07:17:52;11.60;99.90
12588;DHT22;6359;51.450;7.346;2022-12-29T07:22:46;11.20;99.90
12588;DHT22;6359;51.450;7.346;2022-12-29T07:25:13;11.50;99.90
12588;DHT22;6359;51.450;7.346;2022-12-29T07:27:40;11.00;99.90
12588;DHT22;6359;51.450;7.346;2022-12-29T07:30:08;11.50;99.90
12588;DHT22;6359;51.450;7.346;2022-12-29T07:32:37;11.30;99.90
12588;DHT22;6359;51.450;7.346;2022-12-29T07:44:53;11.30;99.90
12588;DHT22;6359;51.450;7.346;2022-12-29T07:49:48;11.20;99.90
12588;DHT22;6359;51.450;7.346;2022-12-29T07:59:36;11.20;99.90
12588;DHT22;6359;51.450;7.346;2022-12-29T08:04:30;11.20;99.90
12588;DHT22;6359;51.450;7.346;2022-12-29T08:06:59;11.10;99.90
12588;DHT22;6359;51.450;7.346;2022-12-29T08:09:26;10.90;99.90
12588;DHT22;6359;51.450;7.346;2022-12-29T08:11:54;11.20;99.90
12588;DHT22;6359;51.450;7.346;2022-12-29T08:16:48;11.20;99.90
12588;DHT22;6359;51.450;7.346;2022-12-29T08:21:42;10.80;99.90
12588;DHT22;6359;51.450;7.346;2022-12-29T08:24:10;11.10;99.90
12588;DHT22;6359;51.450;7.346;2022-12-29T08:33:59;11.20;99.90
12588;DHT22;6359;51.450;7.346;2022-12-29T08:41:25;11.20;99.90
12588;DHT22;6359;51.450;7.346;2022-12-29T08:46:19;11.40;99.90
12588;DHT22;6359;51.450;7.346;2022-12-29T08:51:13;11.50;99.90
12588;DHT22;6359;51.450;7.346;2022-12-29T08:56:09;11.20;99.90
12588;DHT22;6359;51.450;7.346;2022-12-29T08:58:38;11.30;99.90
12588;DHT22;6359;51.450;7.346;2022-12-29T09:03:32;11.20;99.90
12588;DHT22;6359;51.450;7.346;2022-12-29T09:15:57;10.50;99.90
12588;DHT22;6359;51.450;7.346;2022-12-29T09:20:56;10.30;99.90
12588;DHT22;6359;51.450;7.346;2022-12-29T09:28:17;10.50;99.90
12588;DHT22;6359;51.450;7.346;2022-12-29T09:33:13;10.80;99.90
12588;DHT22;6359;51.450;7.346;2022-12-29T09:35:41;10.70;99.90
12588;DHT22;6359;51.450;7.346;2022-12-29T09:46:02;10.90;99.90
12588;DHT22;6359;51.450;7.346;2022-12-29T09:48:36;11.00;99.90
12588;DHT22;6359;51.450;7.346;2022-12-29T09:51:10;10.80;99.90
12588;DHT22;6359;51.450;7.346;2022-12-29T09:53:39;11.10;99.90
12588;DHT22;6359;51.450;7.346;2022-12-29T09:56:13;11.10;99.90
12588;DHT22;6359;51.450;7.346;2022-12-29T09:58:45;11.10;99.90
12588;DHT22;6359;51.450;7.346;2022-12-29T10:01:21;11.10;99.90
12588;DHT22;6359;51.450;7.346;2022-12-29T10:03:56;11.10;99.90
12588;DHT22;6359;51.450;7.346;2022-12-29T10:06:26;11.20;99.90
12588;DHT22;6359;51.450;7.346;2022-12-29T10:09:02;11.20;99.90
12588;DHT22;6359;51.450;7.346;2022-12-29T10:11:46;11.20;99.90
12588;DHT22;6359;51.450;7.346;2022-12-29T10:14:29;11.30;99.90
12588;DHT22;6359;51.450;7.346;2022-12-29T10:17:03;11.60;99.90
12588;DHT22;6359;51.450;7.346;2022-12-29T10:19:48;11.70;99.90
12588;DHT22;6359;51.450;7.346;2022-12-29T10:22:31;12.00;99.90
12588;DHT22;6359;51.450;7.346;2022-12-29T10:25:01;11.90;99.90
12588;DHT22;6359;51.450;7.346;2022-12-29T10:27:31;11.90;99.90
12588;DHT22;6359;51.450;7.346;2022-12-29T10:30:01;12.00;99.90
12588;DHT22;6359;51.450;7.346;2022-12-29T10:32:32;12.10;99.90
12588;DHT22;6359;51.450;7.346;2022-12-29T10:35:06;11.90;99.90
12588;DHT22;6359;51.450;7.346;2022-12-29T10:37:42;11.80;99.90
12588;DHT22;6359;51.450;7.346;2022-12-29T10:40:18;12.00;99.90
12588;DHT22;6359;51.450;7.346;2022-12-29T10:42:50;12.00;99.90
12588;DHT22;6359;51.450;7.346;2022-12-29T10:45:19;12.20;99.90
12588;DHT22;6359;51.450;7.346;2022-12-29T10:47:52;12.20;99.90
12588;DHT22;6359;51.450;7.346;2022-12-29T10:50:22;12.70;99.90
12588;DHT22;6359;51.450;7.346;2022-12-29T10:55:21;12.20;99.90
12588;DHT22;6359;51.450;7.346;2022-12-29T10:57:48;12.00;99.90
12588;DHT22;6359;51.450;7.346;2022-12-29T11:00:18;11.90;99.90
12588;DHT22;6359;51.450;7.346;2022-12-29T11:03:00;11.50;99.90
12588;DHT22;6359;51.450;7.346;2022-12-29T11:05:36;11.80;99.90
12588;DHT22;6359;51.450;7.346;2022-12-29T11:08:09;11.80;99.90
12588;DHT22;6359;51.450;7.346;2022-12-29T11:10:38;11.70;99.90
12588;DHT22;6359;51.450;7.346;2022-12-29T11:13:12;11.60;99.90
12588;DHT22;6359;51.450;7.346;2022-12-29T11:15:41;11.60;99.90
12588;DHT22;6359;51.450;7.346;2022-12-29T11:18:19;11.50;99.90
12588;DHT22;6359;51.450;7.346;2022-12-29T11:20:49;11.50;99.90
12588;DHT22;6359;51.450;7.346;2022-12-29T11:23:24;11.50;99.90
12588;DHT22;6359;51.450;7.346;2022-12-29T11:26:16;11.50;99.90
12588;DHT22;6359;51.450;7.346;2022-12-29T11:28:45;11.40;99.90
12588;DHT22;6359;51.450;7.346;2022-12-29T11:31:16;11.60;99.90
12588;DHT22;6359;51.450;7.346;2022-12-29T11:36:16;11.30;99.90
12588;DHT22;6359;51.450;7.346;2022-12-29T11:38:47;11.40;99.90
12588;DHT22;6359;51.450;7.346;2022-12-29T11:41:21;11.30;99.90
12588;DHT22;6359;51.450;7.346;2022-12-29T11:43:49;11.10;99.90
12588;DHT22;6359;51.450;7.346;2022-12-29T11:46:19;11.30;99.90
12588;DHT22;6359;51.450;7.346;2022-12-29T11:48:47;11.20;99.90
12588;DHT22;6359;51.450;7.346;2022-12-29T11:51:23;11.10;99.90
12588;DHT22;6359;51.450;7.346;2022-12-29T11:53:51;11.20;99.90
12588;DHT22;6359;51.450;7.346;2022-12-29T11:56:22;11.20;99.90
12588;DHT22;6359;51.450;7.346;2022-12-29T12:01:32;11.20;99.90
12588;DHT22;6359;51.450;7.346;2022-12-29T12:04:03;11.20;99.90
12588;DHT22;6359;51.450;7.346;2022-12-29T12:06:38;11.30;99.90
12588;DHT22;6359;51.450;7.346;2022-12-29T12:09:14;11.60;99.90
12588;DHT22;6359;51.450;7.346;2022-12-29T12:11:43;11.30;99.90
12588;DHT22;6359;51.450;7.346;2022-12-29T12:14:15;11.30;99.90
12588;DHT22;6359;51.450;7.346;2022-12-29T12:16:48;11.30;99.90
12588;DHT22;6359;51.450;7.346;2022-12-29T12:19:23;11.30;99.90
12588;DHT22;6359;51.450;7.346;2022-12-29T12:21:56;11.20;99.90
12588;DHT22;6359;51.450;7.346;2022-12-29T12:24:44;11.20;99.90
12588;DHT22;6359;51.450;7.346;2022-12-29T12:27:20;11.20;99.90
12588;DHT22;6359;51.450;7.346;2022-12-29T12:29:52;11.20;99.90
12588;DHT22;6359;51.450;7.346;2022-12-29T12:32:26;11.20;99.90
12588;DHT22;6359;51.450;7.346;2022-12-29T12:37:44;11.10;99.90
12588;DHT22;6359;51.450;7.346;2022-12-29T12:40:37;11.20;99.90
12588;DHT22;6359;51.450;7.346;2022-12-29T12:46:14;11.10;99.90
12588;DHT22;6359;51.450;7.346;2022-12-29T12:51:43;11.20;99.90
12588;DHT22;6359;51.450;7.346;2022-12-29T12:54:28;11.10;99.90
12588;DHT22;6359;51.450;7.346;2022-12-29T12:57:07;11.10;99.90
12588;DHT22;6359;51.450;7.346;2022-12-29T12:59:46;11.10;99.90
12588;DHT22;6359;51.450;7.346;2022-12-29T13:02:26;11.30;99.90
12588;DHT22;6359;51.450;7.346;2022-12-29T13:05:37;11.00;99.90
12588;DHT22;6359;51.450;7.346;2022-12-29T13:08:26;11.20;99.90
12588;DHT22;6359;51.450;7.346;2022-12-29T13:11:07;11.00;99.90
12588;DHT22;6359;51.450;7.346;2022-12-29T13:13:57;11.00;99.90
12588;DHT22;6359;51.450;7.346;2022-12-29T13:16:33;10.80;99.90
12588;DHT22;6359;51.450;7.346;2022-12-29T13:19:04;11.00;99.90
12588;DHT22;6359;51.450;7.346;2022-12-29T13:21:48;10.90;99.90
12588;DHT22;6359;51.450;7.346;2022-12-29T13:24:23;11.00;99.90
12588;DHT22;6359;51.450;7.346;2022-12-29T13:26:58;11.40;99.90
12588;DHT22;6359;51.450;7.346;2022-12-29T13:29:32;10.80;99.90
12588;DHT22;6359;51.450;7.346;2022-12-29T13:32:14;10.90;99.90
12588;DHT22;6359;51.450;7.346;2022-12-29T13:34:53;10.80;99.90
12588;DHT22;6359;51.450;7.346;2022-12-29T13:37:25;9.90;99.90
12588;DHT22;6359;51.450;7.346;2022-12-29T13:39:57;10.80;99.90
12588;DHT22;6359;51.450;7.346;2022-12-29T13:42:27;10.80;99.90
12588;DHT22;6359;51.450;7.346;2022-12-29T13:44:59;10.80;99.90
12588;DHT22;6359;51.450;7.346;2022-12-29T13:47:29;10.80;99.90
12588;DHT22;6359;51.450;7.346;2022-12-29T13:49:59;10.80;99.90
12588;DHT22;6359;51.450;7.346;2022-12-29T13:52:34;10.70;99.90
12588;DHT22;6359;51.450;7.346;2022-12-29T13:55:20;10.70;99.90
12588;DHT22;6359;51.450;7.346;2022-12-29T13:57:58;10.70;99.90
12588;DHT22;6359;51.450;7.346;2022-12-29T14:00:29;10.60;99.90
12588;DHT22;6359;51.450;7.346;2022-12-29T14:03:24;10.60;99.90
12588;DHT22;6359;51.450;7.346;2022-12-29T14:06:11;10.60;99.90
12588;DHT22;6359;51.450;7.346;2022-12-29T14:11:09;8.80;99.90
12588;DHT22;6359;51.450;7.346;2022-12-29T14:13:40;10.60;99.90
12588;DHT22;6359;51.450;7.346;2022-12-29T14:16:26;10.60;99.90
12588;DHT22;6359;51.450;7.346;2022-12-29T14:18:54;10.50;99.90
12588;DHT22;6359;51.450;7.346;2022-12-29T14:21:24;10.40;99.90
12588;DHT22;6359;51.450;7.346;2022-12-29T14:24:32;10.60;99.90
12588;DHT22;6359;51.450;7.346;2022-12-29T14:30:54;10.40;99.90
12588;DHT22;6359;51.450;7.346;2022-12-29T14:33:23;10.50;99.90
12588;DHT22;6359;51.450;7.346;2022-12-29T14:35:52;10.70;99.90
12588;DHT22;6359;51.450;7.346;2022-12-29T14:38:27;10.60;99.90
12588;DHT22;6359;51.450;7.346;2022-12-29T14:41:29;10.60;99.90
12588;DHT22;6359;51.450;7.346;2022-12-29T14:44:02;10.70;99.90
12588;DHT22;6359;51.450;7.346;2022-12-29T14:46:47;10.70;99.90
12588;DHT22;6359;51.450;7.346;2022-12-29T14:49:18;10.60;99.90
12588;DHT22;6359;51.450;7.346;2022-12-29T14:51:46;10.60;99.90
12588;DHT22;6359;51.450;7.346;2022-12-29T14:54:46;10.80;99.90
12588;DHT22;6359;51.450;7.346;2022-12-29T14:57:34;10.60;99.90
12588;DHT22;6359;51.450;7.346;2022-12-29T15:00:12;10.60;99.90
12588;DHT22;6359;51.450;7.346;2022-12-29T15:02:45;10.40;99.90
12588;DHT22;6359;51.450;7.346;2022-12-29T15:05:25;10.70;99.90
12588;DHT22;6359;51.450;7.346;2022-12-29T15:07:56;10.50;99.90
12588;DHT22;6359;51.450;7.346;2022-12-29T15:10:24;10.70;99.90
12588;DHT22;6359;51.450;7.346;2022-12-29T15:12:53;10.50;99.90
12588;DHT22;6359;51.450;7.346;2022-12-29T15:15:23;10.40;99.90
12588;DHT22;6359;51.450;7.346;2022-12-29T15:17:52;9.80;99.90
12588;DHT22;6359;51.450;7.346;2022-12-29T15:20:25;10.40;99.90
12588;DHT22;6359;51.450;7.346;2022-12-29T15:22:54;10.40;99.90
12588;DHT22;6359;51.450;7.346;2022-12-29T15:25:23;10.40;99.90
12588;DHT22;6359;51.450;7.346;2022-12-29T15:27:51;10.20;99.90
12588;DHT22;6359;51.450;7.346;2022-12-29T15:30:20;10.20;99.90
12588;DHT22;6359;51.450;7.346;2022-12-29T15:32:48;10.30;99.90
12588;DHT22;6359;51.450;7.346;2022-12-29T15:35:28;10.30;99.90
12588;DHT22;6359;51.450;7.346;2022-12-29T15:37:56;10.30;99.90
12588;DHT22;6359;51.450;7.346;2022-12-29T15:40:26;10.30;99.90
12588;DHT22;6359;51.450;7.346;2022-12-29T15:43:10;10.30;99.90
12588;DHT22;6359;51.450;7.346;2022-12-29T15:48:14;12.90;99.90
12588;DHT22;6359;51.450;7.346;2022-12-29T15:50:44;10.60;99.90
12588;DHT22;6359;51.450;7.346;2022-12-29T15:53:17;10.30;99.90
12588;DHT22;6359;51.450;7.346;2022-12-29T15:58:20;10.30;99.90
12588;DHT22;6359;51.450;7.346;2022-12-29T16:00:49;10.30;99.90
12588;DHT22;6359;51.450;7.346;2022-12-29T16:03:19;10.30;99.90
12588;DHT22;6359;51.450;7.346;2022-12-29T16:05:52;10.20;99.90
12588;DHT22;6359;51.450;7.346;2022-12-29T16:08:27;10.20;99.90
12588;DHT22;6359;51.450;7.346;2022-12-29T16:13:26;10.00;99.90
12588;DHT22;6359;51.450;7.346;2022-12-29T16:15:59;10.30;99.90
12588;DHT22;6359;51.450;7.346;2022-12-29T16:18:27;10.10;99.90
12588;DHT22;6359;51.450;7.346;2022-12-29T16:20:56;9.80;99.90
12588;DHT22;6359;51.450;7.346;2022-12-29T16:23:25;10.10;99.90
12588;DHT22;6359;51.450;7.346;2022-12-29T16:25:54;10.10;99.90
12588;DHT22;6359;51.450;7.346;2022-12-29T16:28:24;10.10;99.90
12588;DHT22;6359;51.450;7.346;2022-12-29T16:30:59;10.10;99.90
12588;DHT22;6359;51.450;7.346;2022-12-29T16:33:38;10.00;99.90
12588;DHT22;6359;51.450;7.346;2022-12-29T16:36:40;10.10;99.90
12588;DHT22;6359;51.450;7.346;2022-12-29T16:39:35;9.90;99.90
12588;DHT22;6359;51.450;7.346;2022-12-29T16:42:33;9.80;99.90
12588;DHT22;6359;51.450;7.346;2022-12-29T16:45:22;9.80;99.90
12588;DHT22;6359;51.450;7.346;2022-12-29T16:48:15;9.80;99.90
12588;DHT22;6359;51.450;7.346;2022-12-29T16:50:48;9.80;99.90
12588;DHT22;6359;51.450;7.346;2022-12-29T16:53:21;9.80;99.90
12588;DHT22;6359;51.450;7.346;2022-12-29T16:55:51;10.00;99.90
12588;DHT22;6359;51.450;7.346;2022-12-29T16:58:22;9.80;99.90
12588;DHT22;6359;51.450;7.346;2022-12-29T17:08:19;9.70;99.90
12588;DHT22;6359;51.450;7.346;2022-12-29T17:10:49;9.80;99.90
12588;DHT22;6359;51.450;7.346;2022-12-29T17:13:35;9.80;99.90
12588;DHT22;6359;51.450;7.346;2022-12-29T17:23:25;9.90;99.90
12588;DHT22;6359;51.450;7.346;2022-12-29T17:25:52;9.70;99.90
12588;DHT22;6359;51.450;7.346;2022-12-29T17:28:22;9.80;99.90
12588;DHT22;6359;51.450;7.346;2022-12-29T17:30:52;9.90;99.90
12588;DHT22;6359;51.450;7.346;2022-12-29T17:33:20;10.00;99.90
12588;DHT22;6359;51.450;7.346;2022-12-29T17:35:47;9.80;99.90
12588;DHT22;6359;51.450;7.346;2022-12-29T17:38:18;9.80;99.90
12588;DHT22;6359;51.450;7.346;2022-12-29T17:40:46;9.80;99.90
12588;DHT22;6359;51.450;7.346;2022-12-29T17:43:14;9.80;99.90
12588;DHT22;6359;51.450;7.346;2022-12-29T17:45:43;9.80;99.90
12588;DHT22;6359;51.450;7.346;2022-12-29T17:48:12;9.90;99.90
12588;DHT22;6359;51.450;7.346;2022-12-29T17:50:52;9.90;99.90
12588;DHT22;6359;51.450;7.346;2022-12-29T17:53:29;9.60;99.90
12588;DHT22;6359;51.450;7.346;2022-12-29T17:55:58;9.60;99.90
12588;DHT22;6359;51.450;7.346;2022-12-29T17:58:26;9.60;99.90
12588;DHT22;6359;51.450;7.346;2022-12-29T18:00:55;9.30;99.90
12588;DHT22;6359;51.450;7.346;2022-12-29T18:03:25;9.40;99.90
12588;DHT22;6359;51.450;7.346;2022-12-29T18:13:19;8.00;99.90
12588;DHT22;6359;51.450;7.346;2022-12-29T18:18:16;6.70;99.90
12588;DHT22;6359;51.450;7.346;2022-12-29T18:20:44;7.60;99.90
12588;DHT22;6359;51.450;7.346;2022-12-29T18:23:18;7.40;99.90
12588;DHT22;6359;51.450;7.346;2022-12-29T18:25:48;7.70;99.90
12588;DHT22;6359;51.450;7.346;2022-12-29T18:28:17;7.30;99.90
12588;DHT22;6359;51.450;7.346;2022-12-29T18:30:44;7.20;99.90
12588;DHT22;6359;51.450;7.346;2022-12-29T18:33:13;7.10;99.90
12588;DHT22;6359;51.450;7.346;2022-12-29T18:35:44;7.00;99.90
12588;DHT22;6359;51.450;7.346;2022-12-29T18:43:06;7.00;99.90
12588;DHT22;6359;51.450;7.346;2022-12-29T18:45:34;7.00;99.90
12588;DHT22;6359;51.450;7.346;2022-12-29T18:55:24;7.00;99.90
12588;DHT22;6359;51.450;7.346;2022-12-29T18:57:53;6.90;99.90
12588;DHT22;6359;51.450;7.346;2022-12-29T19:00:21;6.80;99.90
12588;DHT22;6359;51.450;7.346;2022-12-29T19:02:51;6.80;99.90
12588;DHT22;6359;51.450;7.346;2022-12-29T19:05:20;6.90;99.90
12588;DHT22;6359;51.450;7.346;2022-12-29T19:12:47;6.90;99.90
12588;DHT22;6359;51.450;7.346;2022-12-29T19:15:20;6.90;99.90
12588;DHT22;6359;51.450;7.346;2022-12-29T19:17:47;7.00;99.90
12588;DHT22;6359;51.450;7.346;2022-12-29T19:20:25;6.80;99.90
12588;DHT22;6359;51.450;7.346;2022-12-29T19:35:09;7.00;99.90
12588;DHT22;6359;51.450;7.346;2022-12-29T19:37:38;7.20;99.90
12588;DHT22;6359;51.450;7.346;2022-12-29T19:40:07;7.30;99.90
12588;DHT22;6359;51.450;7.346;2022-12-29T19:42:35;7.50;99.90
12588;DHT22;6359;51.450;7.346;2022-12-29T19:49:58;7.30;99.90
12588;DHT22;6359;51.450;7.346;2022-12-29T19:52:26;7.30;99.90
12588;DHT22;6359;51.450;7.346;2022-12-29T19:54:55;7.30;99.90
12588;DHT22;6359;51.450;7.346;2022-12-29T20:02:20;7.40;99.90
12588;DHT22;6359;51.450;7.346;2022-12-29T20:04:48;7.40;99.90
12588;DHT22;6359;51.450;7.346;2022-12-29T20:07:15;7.40;99.90
12588;DHT22;6359;51.450;7.346;2022-12-29T20:12:12;7.40;99.90
12588;DHT22;6359;51.450;7.346;2022-12-29T20:14:40;7.40;99.90
12588;DHT22;6359;51.450;7.346;2022-12-29T20:17:08;7.30;99.90
12588;DHT22;6359;51.450;7.346;2022-12-29T20:19:36;7.30;99.90
12588;DHT22;6359;51.450;7.346;2022-12-29T20:22:05;7.30;99.90
12588;DHT22;6359;51.450;7.346;2022-12-29T20:24:33;7.30;99.90
12588;DHT22;6359;51.450;7.346;2022-12-29T20:29:33;7.30;99.90
12588;DHT22;6359;51.450;7.346;2022-12-29T20:32:03;7.30;99.90
12588;DHT22;6359;51.450;7.346;2022-12-29T20:44:19;7.60;99.90
12588;DHT22;6359;51.450;7.346;2022-12-29T20:46:55;7.40;99.90
12588;DHT22;6359;51.450;7.346;2022-12-29T20:59:11;7.40;99.90
12588;DHT22;6359;51.450;7.346;2022-12-29T21:01:39;7.40;99.90
12588;DHT22;6359;51.450;7.346;2022-12-29T21:04:07;7.20;99.90
12588;DHT22;6359;51.450;7.346;2022-12-29T21:09:02;7.40;99.90
12588;DHT22;6359;51.450;7.346;2022-12-29T21:13:57;7.40;99.90
12588;DHT22;6359;51.450;7.346;2022-12-29T21:21:22;7.40;99.90
12588;DHT22;6359;51.450;7.346;2022-12-29T21:23:50;7.40;99.90
12588;DHT22;6359;51.450;7.346;2022-12-29T21:26:19;7.40;99.90
12588;DHT22;6359;51.450;7.346;2022-12-29T21:28:46;7.50;99.90
12588;DHT22;6359;51.450;7.346;2022-12-29T21:31:22;7.30;99.90
12588;DHT22;6359;51.450;7.346;2022-12-29T21:38:45;7.30;99.90
12588;DHT22;6359;51.450;7.346;2022-12-29T21:41:14;7.20;99.90
12588;DHT22;6359;51.450;7.346;2022-12-29T21:46:29;7.30;99.90
12588;DHT22;6359;51.450;7.346;2022-12-29T21:54:09;7.00;99.90
12588;DHT22;6359;51.450;7.346;2022-12-29T21:56:56;7.20;99.90
12588;DHT22;6359;51.450;7.346;2022-12-29T21:59:23;7.10;99.90
12588;DHT22;6359;51.450;7.346;2022-12-29T22:02:16;7.10;99.90
12588;DHT22;6359;51.450;7.346;2022-12-29T22:05:02;6.90;99.90
12588;DHT22;6359;51.450;7.346;2022-12-29T22:10:34;6.90;99.90
12588;DHT22;6359;51.450;7.346;2022-12-29T22:25:39;6.90;99.90
12588;DHT22;6359;51.450;7.346;2022-12-29T22:28:06;6.60;99.90
12588;DHT22;6359;51.450;7.346;2022-12-29T22:35:28;7.00;99.90
12588;DHT22;6359;51.450;7.346;2022-12-29T22:42:50;6.70;99.90
12588;DHT22;6359;51.450;7.346;2022-12-29T22:52:39;6.90;99.90
12588;DHT22;6359;51.450;7.346;2022-12-29T22:55:06;6.70;99.90
12588;DHT22;6359;51.450;7.346;2022-12-29T23:00:04;6.80;99.90
12588;DHT22;6359;51.450;7.346;2022-12-29T23:02:32;6.80;99.90
12588;DHT22;6359;51.450;7.346;2022-12-29T23:09:54;6.40;99.90
12588;DHT22;6359;51.450;7.346;2022-12-29T23:17:16;6.70;99.90
12588;DHT22;6359;51.450;7.346;2022-12-29T23:34:28;6.80;99.90
12588;DHT22;6359;51.450;7.346;2022-12-29T23:39:22;6.70;99.90
12588;DHT22;6359;51.450;7.346;2022-12-29T23:46:44;6.70;99.90
12588;DHT22;6359;51.450;7.346;2022-12-29T23:51:39;6.70;99.90
12588;DHT22;6359;51.450;7.346;2022-12-29T23:54:06;6.90;99.90
12588;DHT22;6359;51.450;7.346;2022-12-29T23:59:02;6.60;99.90
